sensor_id;sensor_type;location;lat;lon;timestamp;P1;durP1;ratioP1;P2;durP2;ratioP2
33453;SDS011;39400;49.744;7.012;2022-12-17T00:01:06;19.75;;;7.20;;
33453;SDS011;39400;49.744;7.012;2022-12-17T00:03:32;13.63;;;6.47;;
33453;SDS011;39400;49.744;7.012;2022-12-17T00:05:58;14.00;;;5.53;;
33453;SDS011;39400;49.744;7.012;2022-12-17T00:08:23;12.48;;;5.85;;
33453;SDS011;39400;49.744;7.012;2022-12-17T00:10:48;10.43;;;5.85;;
33453;SDS011;39400;49.744;7.012;2022-12-17T00:13:20;13.38;;;6.30;;
33453;SDS011;39400;49.744;7.012;2022-12-17T00:15:50;11.52;;;6.70;;
33453;SDS011;39400;49.744;7.012;2022-12-17T00:18:16;13.30;;;5.20;;
33453;SDS011;39400;49.744;7.012;2022-12-17T00:20:41;11.65;;;6.95;;
33453;SDS011;39400;49.744;7.012;2022-12-17T00:23:07;13.75;;;5.45;;
33453;SDS011;39400;49.744;7.012;2022-12-17T00:25:33;17.92;;;6.43;;
33453;SDS011;39400;49.744;7.012;2022-12-17T00:27:58;14.95;;;6.03;;
33453;SDS011;39400;49.744;7.012;2022-12-17T00:30:23;14.02;;;6.63;;
33453;SDS011;39400;49.744;7.012;2022-12-17T00:32:50;16.88;;;5.80;;
33453;SDS011;39400;49.744;7.012;2022-12-17T00:35:17;7.57;;;3.42;;
33453;SDS011;39400;49.744;7.012;2022-12-17T00:37:44;9.77;;;4.20;;
33453;SDS011;39400;49.744;7.012;2022-12-17T00:40:10;6.60;;;2.85;;
33453;SDS011;39400;49.744;7.012;2022-12-17T00:42:35;7.10;;;3.60;;
33453;SDS011;39400;49.744;7.012;2022-12-17T00:45:01;7.75;;;3.45;;
33453;SDS011;39400;49.744;7.012;2022-12-17T00:47:26;7.22;;;3.00;;
33453;SDS011;39400;49.744;7.012;2022-12-17T00:49:53;6.75;;;3.38;;
33453;SDS011;39400;49.744;7.012;2022-12-17T00:52:18;6.72;;;2.88;;
33453;SDS011;39400;49.744;7.012;2022-12-17T00:54:44;8.57;;;3.78;;
33453;SDS011;39400;49.744;7.012;2022-12-17T00:57:10;7.50;;;4.00;;
33453;SDS011;39400;49.744;7.012;2022-12-17T00:59:35;9.20;;;3.95;;
33453;SDS011;39400;49.744;7.012;2022-12-17T01:02:00;11.77;;;5.65;;
33453;SDS011;39400;49.744;7.012;2022-12-17T01:04:26;9.85;;;4.78;;
33453;SDS011;39400;49.744;7.012;2022-12-17T01:06:51;9.77;;;4.88;;
33453;SDS011;39400;49.744;7.012;2022-12-17T01:09:16;10.02;;;4.47;;
33453;SDS011;39400;49.744;7.012;2022-12-17T01:11:42;15.07;;;4.57;;
33453;SDS011;39400;49.744;7.012;2022-12-17T01:14:07;8.82;;;4.20;;
33453;SDS011;39400;49.744;7.012;2022-12-17T01:16:33;12.30;;;4.93;;
33453;SDS011;39400;49.744;7.012;2022-12-17T01:18:59;13.00;;;5.22;;
33453;SDS011;39400;49.744;7.012;2022-12-17T01:21:24;11.48;;;4.53;;
33453;SDS011;39400;49.744;7.012;2022-12-17T01:23:49;10.63;;;5.05;;
33453;SDS011;39400;49.744;7.012;2022-12-17T01:26:16;10.02;;;5.05;;
33453;SDS011;39400;49.744;7.012;2022-12-17T01:28:41;12.55;;;4.93;;
33453;SDS011;39400;49.744;7.012;2022-12-17T01:31:07;11.05;;;5.35;;
33453;SDS011;39400;49.744;7.012;2022-12-17T01:33:33;17.60;;;7.70;;
33453;SDS011;39400;49.744;7.012;2022-12-17T01:35:59;14.52;;;5.80;;
33453;SDS011;39400;49.744;7.012;2022-12-17T01:38:25;9.98;;;5.55;;
33453;SDS011;39400;49.744;7.012;2022-12-17T01:40:51;11.82;;;5.30;;
33453;SDS011;39400;49.744;7.012;2022-12-17T01:43:29;11.02;;;5.50;;
33453;SDS011;39400;49.744;7.012;2022-12-17T01:45:59;12.23;;;5.82;;
33453;SDS011;39400;49.744;7.012;2022-12-17T01:48:27;15.88;;;6.05;;
33453;SDS011;39400;49.744;7.012;2022-12-17T01:50:56;11.05;;;5.65;;
33453;SDS011;39400;49.744;7.012;2022-12-17T01:53:24;16.45;;;6.75;;
33453;SDS011;39400;49.744;7.012;2022-12-17T01:55:51;12.48;;;6.28;;
33453;SDS011;39400;49.744;7.012;2022-12-17T01:58:17;9.93;;;4.88;;
33453;SDS011;39400;49.744;7.012;2022-12-17T02:00:43;10.90;;;5.63;;
33453;SDS011;39400;49.744;7.012;2022-12-17T02:03:15;10.15;;;4.63;;
33453;SDS011;39400;49.744;7.012;2022-12-17T02:05:55;13.95;;;5.45;;
33453;SDS011;39400;49.744;7.012;2022-12-17T02:11:38;8.80;;;4.63;;
33453;SDS011;39400;49.744;7.012;2022-12-17T02:14:26;14.13;;;5.65;;
33453;SDS011;39400;49.744;7.012;2022-12-17T02:16:59;13.05;;;5.18;;
33453;SDS011;39400;49.744;7.012;2022-12-17T02:20:17;12.70;;;5.38;;
33453;SDS011;39400;49.744;7.012;2022-12-17T02:25:31;9.52;;;5.70;;
33453;SDS011;39400;49.744;7.012;2022-12-17T02:28:07;9.90;;;5.43;;
33453;SDS011;39400;49.744;7.012;2022-12-17T02:30:32;15.23;;;6.95;;
33453;SDS011;39400;49.744;7.012;2022-12-17T02:32:59;12.35;;;5.70;;
33453;SDS011;39400;49.744;7.012;2022-12-17T02:35:34;18.58;;;6.75;;
33453;SDS011;39400;49.744;7.012;2022-12-17T02:38:21;21.02;;;9.40;;
33453;SDS011;39400;49.744;7.012;2022-12-17T02:40:50;25.38;;;10.55;;
33453;SDS011;39400;49.744;7.012;2022-12-17T02:43:16;27.38;;;11.40;;
33453;SDS011;39400;49.744;7.012;2022-12-17T02:45:45;30.05;;;12.32;;
33453;SDS011;39400;49.744;7.012;2022-12-17T02:48:11;33.80;;;11.30;;
33453;SDS011;39400;49.744;7.012;2022-12-17T02:50:37;33.67;;;11.70;;
33453;SDS011;39400;49.744;7.012;2022-12-17T02:53:03;25.17;;;11.30;;
33453;SDS011;39400;49.744;7.012;2022-12-17T02:55:29;23.48;;;10.10;;
33453;SDS011;39400;49.744;7.012;2022-12-17T02:57:54;25.67;;;10.85;;
33453;SDS011;39400;49.744;7.012;2022-12-17T03:00:20;21.60;;;9.90;;
33453;SDS011;39400;49.744;7.012;2022-12-17T03:02:46;24.80;;;10.30;;
33453;SDS011;39400;49.744;7.012;2022-12-17T03:05:11;24.85;;;9.77;;
33453;SDS011;39400;49.744;7.012;2022-12-17T03:07:37;18.23;;;9.07;;
33453;SDS011;39400;49.744;7.012;2022-12-17T03:10:02;15.15;;;7.57;;
33453;SDS011;39400;49.744;7.012;2022-12-17T03:12:30;18.80;;;7.72;;
33453;SDS011;39400;49.744;7.012;2022-12-17T03:14:56;18.30;;;8.23;;
33453;SDS011;39400;49.744;7.012;2022-12-17T03:17:21;16.60;;;8.05;;
33453;SDS011;39400;49.744;7.012;2022-12-17T03:19:46;17.55;;;7.80;;
33453;SDS011;39400;49.744;7.012;2022-12-17T03:22:12;15.50;;;7.53;;
33453;SDS011;39400;49.744;7.012;2022-12-17T03:24:37;18.45;;;8.93;;
33453;SDS011;39400;49.744;7.012;2022-12-17T03:27:02;17.33;;;7.20;;
33453;SDS011;39400;49.744;7.012;2022-12-17T03:29:28;16.05;;;7.53;;
33453;SDS011;39400;49.744;7.012;2022-12-17T03:31:53;17.65;;;9.57;;
33453;SDS011;39400;49.744;7.012;2022-12-17T03:34:18;20.27;;;8.23;;
33453;SDS011;39400;49.744;7.012;2022-12-17T03:36:44;24.45;;;10.13;;
33453;SDS011;39400;49.744;7.012;2022-12-17T03:39:09;26.70;;;12.05;;
33453;SDS011;39400;49.744;7.012;2022-12-17T03:41:34;25.15;;;10.55;;
33453;SDS011;39400;49.744;7.012;2022-12-17T03:44:00;26.17;;;11.02;;
33453;SDS011;39400;49.744;7.012;2022-12-17T03:46:25;19.65;;;8.35;;
33453;SDS011;39400;49.744;7.012;2022-12-17T03:48:50;17.10;;;8.00;;
33453;SDS011;39400;49.744;7.012;2022-12-17T03:51:16;21.08;;;9.90;;
33453;SDS011;39400;49.744;7.012;2022-12-17T03:53:41;17.23;;;8.00;;
33453;SDS011;39400;49.744;7.012;2022-12-17T03:56:06;15.18;;;7.00;;
33453;SDS011;39400;49.744;7.012;2022-12-17T03:58:32;12.23;;;5.75;;
33453;SDS011;39400;49.744;7.012;2022-12-17T04:00:57;10.10;;;5.22;;
33453;SDS011;39400;49.744;7.012;2022-12-17T04:03:22;11.43;;;4.75;;
33453;SDS011;39400;49.744;7.012;2022-12-17T04:05:48;8.15;;;4.32;;
33453;SDS011;39400;49.744;7.012;2022-12-17T04:08:13;9.43;;;4.00;;
33453;SDS011;39400;49.744;7.012;2022-12-17T04:10:38;12.13;;;3.83;;
33453;SDS011;39400;49.744;7.012;2022-12-17T04:13:04;9.82;;;3.97;;
33453;SDS011;39400;49.744;7.012;2022-12-17T04:15:29;7.70;;;3.47;;
33453;SDS011;39400;49.744;7.012;2022-12-17T04:17:54;10.20;;;3.97;;
33453;SDS011;39400;49.744;7.012;2022-12-17T04:20:20;10.15;;;3.05;;
33453;SDS011;39400;49.744;7.012;2022-12-17T04:22:45;5.63;;;3.33;;
33453;SDS011;39400;49.744;7.012;2022-12-17T04:25:10;7.32;;;3.72;;
33453;SDS011;39400;49.744;7.012;2022-12-17T04:27:36;9.75;;;3.53;;
33453;SDS011;39400;49.744;7.012;2022-12-17T04:30:01;8.45;;;3.95;;
33453;SDS011;39400;49.744;7.012;2022-12-17T04:32:26;14.93;;;4.50;;
33453;SDS011;39400;49.744;7.012;2022-12-17T04:34:52;9.85;;;4.10;;
33453;SDS011;39400;49.744;7.012;2022-12-17T04:37:17;11.45;;;4.30;;
33453;SDS011;39400;49.744;7.012;2022-12-17T04:39:42;10.27;;;3.83;;
33453;SDS011;39400;49.744;7.012;2022-12-17T04:42:07;10.40;;;4.65;;
33453;SDS011;39400;49.744;7.012;2022-12-17T04:44:33;9.30;;;4.53;;
33453;SDS011;39400;49.744;7.012;2022-12-17T04:46:58;11.13;;;4.97;;
33453;SDS011;39400;49.744;7.012;2022-12-17T04:49:23;6.88;;;3.72;;
33453;SDS011;39400;49.744;7.012;2022-12-17T04:51:49;10.57;;;4.55;;
33453;SDS011;39400;49.744;7.012;2022-12-17T04:54:14;11.55;;;5.53;;
33453;SDS011;39400;49.744;7.012;2022-12-17T04:56:39;11.18;;;6.35;;
33453;SDS011;39400;49.744;7.012;2022-12-17T04:59:05;10.85;;;4.28;;
33453;SDS011;39400;49.744;7.012;2022-12-17T05:01:30;9.25;;;4.40;;
33453;SDS011;39400;49.744;7.012;2022-12-17T05:03:56;8.30;;;4.18;;
33453;SDS011;39400;49.744;7.012;2022-12-17T05:06:21;6.82;;;3.67;;
33453;SDS011;39400;49.744;7.012;2022-12-17T05:08:46;10.13;;;4.18;;
33453;SDS011;39400;49.744;7.012;2022-12-17T05:11:12;8.30;;;3.85;;
33453;SDS011;39400;49.744;7.012;2022-12-17T05:13:37;9.98;;;5.00;;
33453;SDS011;39400;49.744;7.012;2022-12-17T05:16:02;9.63;;;4.10;;
33453;SDS011;39400;49.744;7.012;2022-12-17T05:18:28;8.32;;;4.63;;
33453;SDS011;39400;49.744;7.012;2022-12-17T05:20:53;8.27;;;3.60;;
33453;SDS011;39400;49.744;7.012;2022-12-17T05:23:18;5.28;;;2.45;;
33453;SDS011;39400;49.744;7.012;2022-12-17T05:25:44;5.25;;;2.58;;
33453;SDS011;39400;49.744;7.012;2022-12-17T05:28:09;7.97;;;3.03;;
33453;SDS011;39400;49.744;7.012;2022-12-17T05:30:34;7.10;;;3.50;;
33453;SDS011;39400;49.744;7.012;2022-12-17T05:33:00;6.00;;;2.70;;
33453;SDS011;39400;49.744;7.012;2022-12-17T05:35:27;7.40;;;3.20;;
33453;SDS011;39400;49.744;7.012;2022-12-17T05:37:52;6.95;;;2.88;;
33453;SDS011;39400;49.744;7.012;2022-12-17T05:40:18;6.10;;;2.63;;
33453;SDS011;39400;49.744;7.012;2022-12-17T05:42:52;7.20;;;3.05;;
33453;SDS011;39400;49.744;7.012;2022-12-17T05:45:28;5.38;;;2.90;;
33453;SDS011;39400;49.744;7.012;2022-12-17T05:47:56;7.13;;;3.42;;
33453;SDS011;39400;49.744;7.012;2022-12-17T05:50:21;7.38;;;3.78;;
33453;SDS011;39400;49.744;7.012;2022-12-17T05:52:47;9.05;;;5.38;;
33453;SDS011;39400;49.744;7.012;2022-12-17T05:55:12;8.48;;;3.78;;
33453;SDS011;39400;49.744;7.012;2022-12-17T05:57:37;8.35;;;3.72;;
33453;SDS011;39400;49.744;7.012;2022-12-17T06:00:03;8.82;;;3.83;;
33453;SDS011;39400;49.744;7.012;2022-12-17T06:02:37;9.38;;;3.83;;
33453;SDS011;39400;49.744;7.012;2022-12-17T06:05:02;8.85;;;4.43;;
33453;SDS011;39400;49.744;7.012;2022-12-17T06:07:28;11.55;;;4.15;;
33453;SDS011;39400;49.744;7.012;2022-12-17T06:09:54;8.35;;;3.92;;
33453;SDS011;39400;49.744;7.012;2022-12-17T06:12:19;7.63;;;3.90;;
33453;SDS011;39400;49.744;7.012;2022-12-17T06:14:44;7.63;;;3.58;;
33453;SDS011;39400;49.744;7.012;2022-12-17T06:17:10;6.90;;;3.78;;
33453;SDS011;39400;49.744;7.012;2022-12-17T06:19:35;7.60;;;3.65;;
33453;SDS011;39400;49.744;7.012;2022-12-17T06:22:00;7.20;;;4.18;;
33453;SDS011;39400;49.744;7.012;2022-12-17T06:24:26;8.52;;;4.05;;
33453;SDS011;39400;49.744;7.012;2022-12-17T06:26:51;6.95;;;3.47;;
33453;SDS011;39400;49.744;7.012;2022-12-17T06:29:16;8.30;;;4.60;;
33453;SDS011;39400;49.744;7.012;2022-12-17T06:31:42;9.23;;;4.20;;
33453;SDS011;39400;49.744;7.012;2022-12-17T06:34:07;7.60;;;4.30;;
33453;SDS011;39400;49.744;7.012;2022-12-17T06:36:32;7.90;;;3.85;;
33453;SDS011;39400;49.744;7.012;2022-12-17T06:38:58;9.07;;;4.13;;
33453;SDS011;39400;49.744;7.012;2022-12-17T06:41:23;9.30;;;4.22;;
33453;SDS011;39400;49.744;7.012;2022-12-17T06:43:48;6.82;;;3.35;;
33453;SDS011;39400;49.744;7.012;2022-12-17T06:46:14;16.27;;;7.13;;
33453;SDS011;39400;49.744;7.012;2022-12-17T06:48:39;21.20;;;8.90;;
33453;SDS011;39400;49.744;7.012;2022-12-17T06:51:04;22.95;;;9.25;;
33453;SDS011;39400;49.744;7.012;2022-12-17T06:53:30;18.13;;;8.13;;
33453;SDS011;39400;49.744;7.012;2022-12-17T06:55:56;13.95;;;5.38;;
33453;SDS011;39400;49.744;7.012;2022-12-17T06:58:22;8.60;;;4.05;;
33453;SDS011;39400;49.744;7.012;2022-12-17T07:00:51;8.95;;;3.78;;
33453;SDS011;39400;49.744;7.012;2022-12-17T07:03:16;9.55;;;4.25;;
33453;SDS011;39400;49.744;7.012;2022-12-17T07:05:41;10.93;;;5.22;;
33453;SDS011;39400;49.744;7.012;2022-12-17T07:08:07;10.10;;;4.00;;
33453;SDS011;39400;49.744;7.012;2022-12-17T07:10:32;12.75;;;4.53;;
33453;SDS011;39400;49.744;7.012;2022-12-17T07:13:04;16.90;;;6.75;;
33453;SDS011;39400;49.744;7.012;2022-12-17T07:15:31;22.23;;;8.48;;
33453;SDS011;39400;49.744;7.012;2022-12-17T07:17:59;19.52;;;7.78;;
33453;SDS011;39400;49.744;7.012;2022-12-17T07:20:25;20.08;;;8.98;;
33453;SDS011;39400;49.744;7.012;2022-12-17T07:22:54;15.63;;;6.43;;
33453;SDS011;39400;49.744;7.012;2022-12-17T07:25:20;14.13;;;5.88;;
33453;SDS011;39400;49.744;7.012;2022-12-17T07:27:52;11.60;;;4.75;;
33453;SDS011;39400;49.744;7.012;2022-12-17T07:30:21;13.30;;;6.75;;
33453;SDS011;39400;49.744;7.012;2022-12-17T07:32:47;10.35;;;4.65;;
33453;SDS011;39400;49.744;7.012;2022-12-17T07:35:22;9.02;;;4.40;;
33453;SDS011;39400;49.744;7.012;2022-12-17T07:37:47;12.13;;;5.07;;
33453;SDS011;39400;49.744;7.012;2022-12-17T07:40:13;10.65;;;4.78;;
33453;SDS011;39400;49.744;7.012;2022-12-17T07:42:38;7.93;;;4.20;;
33453;SDS011;39400;49.744;7.012;2022-12-17T07:45:23;10.15;;;5.07;;
33453;SDS011;39400;49.744;7.012;2022-12-17T07:47:52;11.85;;;5.80;;
33453;SDS011;39400;49.744;7.012;2022-12-17T07:50:18;13.05;;;4.75;;
33453;SDS011;39400;49.744;7.012;2022-12-17T07:52:43;13.13;;;6.65;;
33453;SDS011;39400;49.744;7.012;2022-12-17T07:55:08;13.73;;;5.00;;
33453;SDS011;39400;49.744;7.012;2022-12-17T07:57:34;9.77;;;5.40;;
33453;SDS011;39400;49.744;7.012;2022-12-17T07:59:59;9.43;;;4.72;;
33453;SDS011;39400;49.744;7.012;2022-12-17T08:02:24;9.77;;;4.55;;
33453;SDS011;39400;49.744;7.012;2022-12-17T08:04:50;10.57;;;5.25;;
33453;SDS011;39400;49.744;7.012;2022-12-17T08:07:15;10.05;;;4.20;;
33453;SDS011;39400;49.744;7.012;2022-12-17T08:09:40;10.20;;;5.03;;
33453;SDS011;39400;49.744;7.012;2022-12-17T08:12:06;13.20;;;6.47;;
33453;SDS011;39400;49.744;7.012;2022-12-17T08:14:31;12.43;;;5.55;;
33453;SDS011;39400;49.744;7.012;2022-12-17T08:16:56;8.93;;;4.05;;
33453;SDS011;39400;49.744;7.012;2022-12-17T08:19:22;7.53;;;3.47;;
33453;SDS011;39400;49.744;7.012;2022-12-17T08:21:47;4.90;;;2.33;;
33453;SDS011;39400;49.744;7.012;2022-12-17T08:24:12;7.40;;;2.53;;
33453;SDS011;39400;49.744;7.012;2022-12-17T08:26:38;7.85;;;3.33;;
33453;SDS011;39400;49.744;7.012;2022-12-17T08:29:03;7.60;;;3.15;;
33453;SDS011;39400;49.744;7.012;2022-12-17T08:31:28;7.07;;;2.22;;
33453;SDS011;39400;49.744;7.012;2022-12-17T08:33:54;4.68;;;2.05;;
33453;SDS011;39400;49.744;7.012;2022-12-17T08:36:19;2.85;;;1.33;;
33453;SDS011;39400;49.744;7.012;2022-12-17T08:38:44;3.75;;;1.30;;
33453;SDS011;39400;49.744;7.012;2022-12-17T08:41:10;2.13;;;1.00;;
33453;SDS011;39400;49.744;7.012;2022-12-17T08:43:35;2.85;;;1.13;;
33453;SDS011;39400;49.744;7.012;2022-12-17T08:46:00;1.45;;;0.93;;
33453;SDS011;39400;49.744;7.012;2022-12-17T08:48:26;1.83;;;0.85;;
33453;SDS011;39400;49.744;7.012;2022-12-17T08:50:51;3.47;;;1.20;;
33453;SDS011;39400;49.744;7.012;2022-12-17T08:53:17;2.88;;;1.20;;
33453;SDS011;39400;49.744;7.012;2022-12-17T08:55:42;2.72;;;1.23;;
33453;SDS011;39400;49.744;7.012;2022-12-17T08:58:07;6.30;;;2.72;;
33453;SDS011;39400;49.744;7.012;2022-12-17T09:00:33;3.63;;;2.03;;
33453;SDS011;39400;49.744;7.012;2022-12-17T09:02:59;4.50;;;1.90;;
33453;SDS011;39400;49.744;7.012;2022-12-17T09:05:25;5.50;;;2.20;;
33453;SDS011;39400;49.744;7.012;2022-12-17T09:08:00;2.33;;;1.27;;
33453;SDS011;39400;49.744;7.012;2022-12-17T09:10:26;3.45;;;1.60;;
33453;SDS011;39400;49.744;7.012;2022-12-17T09:12:52;2.50;;;1.20;;
33453;SDS011;39400;49.744;7.012;2022-12-17T09:15:17;3.45;;;1.48;;
33453;SDS011;39400;49.744;7.012;2022-12-17T09:17:42;3.50;;;1.50;;
33453;SDS011;39400;49.744;7.012;2022-12-17T09:20:08;4.03;;;1.55;;
33453;SDS011;39400;49.744;7.012;2022-12-17T09:22:34;3.20;;;1.40;;
33453;SDS011;39400;49.744;7.012;2022-12-17T09:24:59;3.83;;;1.63;;
33453;SDS011;39400;49.744;7.012;2022-12-17T09:27:25;4.60;;;1.40;;
33453;SDS011;39400;49.744;7.012;2022-12-17T09:29:50;2.42;;;1.10;;
33453;SDS011;39400;49.744;7.012;2022-12-17T09:32:16;2.35;;;1.40;;
33453;SDS011;39400;49.744;7.012;2022-12-17T09:34:41;3.60;;;1.27;;
33453;SDS011;39400;49.744;7.012;2022-12-17T09:37:06;4.47;;;2.05;;
33453;SDS011;39400;49.744;7.012;2022-12-17T09:39:31;6.10;;;2.63;;
33453;SDS011;39400;49.744;7.012;2022-12-17T09:47:15;5.70;;;2.92;;
33453;SDS011;39400;49.744;7.012;2022-12-17T09:49:43;6.07;;;3.10;;
33453;SDS011;39400;49.744;7.012;2022-12-17T09:52:20;5.55;;;3.00;;
33453;SDS011;39400;49.744;7.012;2022-12-17T09:54:50;5.65;;;2.65;;
33453;SDS011;39400;49.744;7.012;2022-12-17T09:57:16;4.20;;;2.00;;
33453;SDS011;39400;49.744;7.012;2022-12-17T09:59:45;4.68;;;2.25;;
33453;SDS011;39400;49.744;7.012;2022-12-17T10:02:11;3.03;;;1.65;;
33453;SDS011;39400;49.744;7.012;2022-12-17T10:04:42;3.17;;;1.65;;
33453;SDS011;39400;49.744;7.012;2022-12-17T10:07:13;5.35;;;2.10;;
33453;SDS011;39400;49.744;7.012;2022-12-17T10:09:41;6.13;;;3.20;;
33453;SDS011;39400;49.744;7.012;2022-12-17T10:12:15;13.10;;;6.25;;
33453;SDS011;39400;49.744;7.012;2022-12-17T10:14:43;16.02;;;7.68;;
33453;SDS011;39400;49.744;7.012;2022-12-17T10:17:15;16.15;;;8.27;;
33453;SDS011;39400;49.744;7.012;2022-12-17T10:19:43;17.30;;;9.02;;
33453;SDS011;39400;49.744;7.012;2022-12-17T10:22:14;14.98;;;7.03;;
33453;SDS011;39400;49.744;7.012;2022-12-17T10:24:43;13.00;;;7.78;;
33453;SDS011;39400;49.744;7.012;2022-12-17T10:27:09;13.50;;;7.10;;
33453;SDS011;39400;49.744;7.012;2022-12-17T10:29:35;12.32;;;6.05;;
33453;SDS011;39400;49.744;7.012;2022-12-17T10:32:10;10.35;;;5.80;;
33453;SDS011;39400;49.744;7.012;2022-12-17T10:34:39;13.23;;;7.72;;
33453;SDS011;39400;49.744;7.012;2022-12-17T10:37:16;9.85;;;5.65;;
33453;SDS011;39400;49.744;7.012;2022-12-17T10:39:51;13.80;;;6.57;;
33453;SDS011;39400;49.744;7.012;2022-12-17T10:42:23;10.95;;;5.15;;
33453;SDS011;39400;49.744;7.012;2022-12-17T10:44:50;10.32;;;5.57;;
33453;SDS011;39400;49.744;7.012;2022-12-17T10:47:19;15.23;;;5.72;;
33453;SDS011;39400;49.744;7.012;2022-12-17T10:49:55;11.25;;;5.68;;
33453;SDS011;39400;49.744;7.012;2022-12-17T10:52:28;11.05;;;6.20;;
33453;SDS011;39400;49.744;7.012;2022-12-17T10:55:02;8.35;;;4.85;;
33453;SDS011;39400;49.744;7.012;2022-12-17T10:57:30;7.90;;;3.92;;
33453;SDS011;39400;49.744;7.012;2022-12-17T10:59:57;5.45;;;3.00;;
33453;SDS011;39400;49.744;7.012;2022-12-17T11:02:26;3.80;;;2.17;;
33453;SDS011;39400;49.744;7.012;2022-12-17T11:04:54;5.82;;;2.50;;
33453;SDS011;39400;49.744;7.012;2022-12-17T11:07:23;2.92;;;1.45;;
33453;SDS011;39400;49.744;7.012;2022-12-17T11:09:53;5.05;;;1.70;;
33453;SDS011;39400;49.744;7.012;2022-12-17T11:12:23;5.00;;;1.55;;
33453;SDS011;39400;49.744;7.012;2022-12-17T11:14:58;4.65;;;1.90;;
33453;SDS011;39400;49.744;7.012;2022-12-17T11:17:28;2.42;;;1.45;;
33453;SDS011;39400;49.744;7.012;2022-12-17T11:20:01;1.92;;;1.05;;
33453;SDS011;39400;49.744;7.012;2022-12-17T11:22:51;1.58;;;0.90;;
33453;SDS011;39400;49.744;7.012;2022-12-17T11:28:23;2.15;;;1.10;;
33453;SDS011;39400;49.744;7.012;2022-12-17T11:30:53;2.38;;;1.00;;
33453;SDS011;39400;49.744;7.012;2022-12-17T11:33:31;2.63;;;1.20;;
33453;SDS011;39400;49.744;7.012;2022-12-17T11:36:12;3.47;;;2.20;;
33453;SDS011;39400;49.744;7.012;2022-12-17T11:44:22;1.88;;;1.10;;
33453;SDS011;39400;49.744;7.012;2022-12-17T11:47:14;1.15;;;0.80;;
33453;SDS011;39400;49.744;7.012;2022-12-17T11:52:26;2.88;;;1.13;;
33453;SDS011;39400;49.744;7.012;2022-12-17T11:55:00;1.80;;;1.15;;
33453;SDS011;39400;49.744;7.012;2022-12-17T11:57:56;3.50;;;2.05;;
33453;SDS011;39400;49.744;7.012;2022-12-17T12:00:26;2.72;;;1.23;;
33453;SDS011;39400;49.744;7.012;2022-12-17T12:08:26;2.67;;;1.13;;
33453;SDS011;39400;49.744;7.012;2022-12-17T12:11:01;3.85;;;1.38;;
33453;SDS011;39400;49.744;7.012;2022-12-17T12:16:41;2.42;;;1.35;;
33453;SDS011;39400;49.744;7.012;2022-12-17T12:19:18;2.20;;;1.48;;
33453;SDS011;39400;49.744;7.012;2022-12-17T12:21:57;2.00;;;1.63;;
33453;SDS011;39400;49.744;7.012;2022-12-17T12:24:34;2.35;;;1.10;;
33453;SDS011;39400;49.744;7.012;2022-12-17T12:29:39;2.92;;;1.48;;
33453;SDS011;39400;49.744;7.012;2022-12-17T12:32:20;2.58;;;1.45;;
33453;SDS011;39400;49.744;7.012;2022-12-17T12:34:54;3.25;;;1.55;;
33453;SDS011;39400;49.744;7.012;2022-12-17T12:37:27;3.63;;;1.75;;
33453;SDS011;39400;49.744;7.012;2022-12-17T12:39:58;4.68;;;2.35;;
33453;SDS011;39400;49.744;7.012;2022-12-17T12:51:11;2.42;;;1.48;;
33453;SDS011;39400;49.744;7.012;2022-12-17T12:53:42;3.22;;;1.65;;
33453;SDS011;39400;49.744;7.012;2022-12-17T12:56:27;2.83;;;1.60;;
33453;SDS011;39400;49.744;7.012;2022-12-17T12:58:56;2.30;;;1.58;;
33453;SDS011;39400;49.744;7.012;2022-12-17T13:01:30;2.00;;;1.17;;
33453;SDS011;39400;49.744;7.012;2022-12-17T13:03:57;2.28;;;1.30;;
33453;SDS011;39400;49.744;7.012;2022-12-17T13:09:30;8.93;;;3.42;;
33453;SDS011;39400;49.744;7.012;2022-12-17T13:17:00;1.58;;;0.85;;
33453;SDS011;39400;49.744;7.012;2022-12-17T13:19:39;1.30;;;0.90;;
33453;SDS011;39400;49.744;7.012;2022-12-17T13:24:41;2.05;;;1.20;;
33453;SDS011;39400;49.744;7.012;2022-12-17T13:38:20;2.38;;;1.30;;
33453;SDS011;39400;49.744;7.012;2022-12-17T13:41:10;3.03;;;1.55;;
33453;SDS011;39400;49.744;7.012;2022-12-17T13:43:47;2.97;;;1.42;;
33453;SDS011;39400;49.744;7.012;2022-12-17T13:46:18;2.72;;;1.33;;
33453;SDS011;39400;49.744;7.012;2022-12-17T13:48:55;3.90;;;2.00;;
33453;SDS011;39400;49.744;7.012;2022-12-17T13:51:22;7.45;;;2.83;;
33453;SDS011;39400;49.744;7.012;2022-12-17T13:53:50;3.67;;;1.23;;
33453;SDS011;39400;49.744;7.012;2022-12-17T13:56:33;2.53;;;1.40;;
33453;SDS011;39400;49.744;7.012;2022-12-17T13:59:00;4.78;;;3.00;;
33453;SDS011;39400;49.744;7.012;2022-12-17T14:01:28;8.82;;;4.05;;
33453;SDS011;39400;49.744;7.012;2022-12-17T14:03:54;6.60;;;3.10;;
33453;SDS011;39400;49.744;7.012;2022-12-17T14:06:22;8.68;;;3.30;;
33453;SDS011;39400;49.744;7.012;2022-12-17T14:08:51;5.20;;;2.15;;
33453;SDS011;39400;49.744;7.012;2022-12-17T14:11:19;3.40;;;1.60;;
33453;SDS011;39400;49.744;7.012;2022-12-17T14:13:46;5.20;;;2.38;;
33453;SDS011;39400;49.744;7.012;2022-12-17T14:16:16;4.00;;;2.65;;
33453;SDS011;39400;49.744;7.012;2022-12-17T14:18:45;3.92;;;2.00;;
33453;SDS011;39400;49.744;7.012;2022-12-17T14:21:15;6.05;;;2.60;;
33453;SDS011;39400;49.744;7.012;2022-12-17T14:23:41;3.92;;;1.73;;
33453;SDS011;39400;49.744;7.012;2022-12-17T14:26:09;3.83;;;2.05;;
33453;SDS011;39400;49.744;7.012;2022-12-17T14:28:36;3.30;;;2.20;;
33453;SDS011;39400;49.744;7.012;2022-12-17T14:31:22;5.93;;;2.55;;
33453;SDS011;39400;49.744;7.012;2022-12-17T14:34:02;5.35;;;2.70;;
33453;SDS011;39400;49.744;7.012;2022-12-17T14:36:39;6.22;;;3.33;;
33453;SDS011;39400;49.744;7.012;2022-12-17T14:39:19;37.30;;;10.95;;
33453;SDS011;39400;49.744;7.012;2022-12-17T14:41:48;15.18;;;5.30;;
33453;SDS011;39400;49.744;7.012;2022-12-17T14:44:20;5.70;;;2.10;;
33453;SDS011;39400;49.744;7.012;2022-12-17T14:46:48;4.30;;;1.98;;
33453;SDS011;39400;49.744;7.012;2022-12-17T14:49:16;3.38;;;1.70;;
33453;SDS011;39400;49.744;7.012;2022-12-17T14:51:44;2.70;;;1.23;;
33453;SDS011;39400;49.744;7.012;2022-12-17T14:56:48;2.70;;;1.48;;
33453;SDS011;39400;49.744;7.012;2022-12-17T14:59:30;2.45;;;1.58;;
33453;SDS011;39400;49.744;7.012;2022-12-17T15:01:58;3.35;;;1.65;;
33453;SDS011;39400;49.744;7.012;2022-12-17T15:04:26;3.55;;;1.95;;
33453;SDS011;39400;49.744;7.012;2022-12-17T15:06:52;8.98;;;4.38;;
33453;SDS011;39400;49.744;7.012;2022-12-17T15:09:18;16.20;;;6.72;;
33453;SDS011;39400;49.744;7.012;2022-12-17T15:11:44;18.30;;;10.15;;
33453;SDS011;39400;49.744;7.012;2022-12-17T15:14:09;12.25;;;6.10;;
33453;SDS011;39400;49.744;7.012;2022-12-17T15:16:34;8.18;;;4.00;;
33453;SDS011;39400;49.744;7.012;2022-12-17T15:19:00;11.38;;;4.32;;
33453;SDS011;39400;49.744;7.012;2022-12-17T15:21:25;8.73;;;4.03;;
33453;SDS011;39400;49.744;7.012;2022-12-17T15:23:50;11.40;;;4.07;;
33453;SDS011;39400;49.744;7.012;2022-12-17T15:26:16;6.53;;;3.08;;
33453;SDS011;39400;49.744;7.012;2022-12-17T15:28:42;6.75;;;3.50;;
33453;SDS011;39400;49.744;7.012;2022-12-17T15:31:08;6.05;;;3.03;;
33453;SDS011;39400;49.744;7.012;2022-12-17T15:33:34;4.28;;;2.03;;
33453;SDS011;39400;49.744;7.012;2022-12-17T15:36:00;5.93;;;2.22;;
33453;SDS011;39400;49.744;7.012;2022-12-17T15:38:25;4.38;;;2.05;;
33453;SDS011;39400;49.744;7.012;2022-12-17T15:40:50;4.65;;;2.28;;
33453;SDS011;39400;49.744;7.012;2022-12-17T15:43:16;2.88;;;1.40;;
33453;SDS011;39400;49.744;7.012;2022-12-17T15:45:42;4.55;;;1.77;;
33453;SDS011;39400;49.744;7.012;2022-12-17T15:48:10;5.25;;;1.50;;
33453;SDS011;39400;49.744;7.012;2022-12-17T15:50:38;5.45;;;1.80;;
33453;SDS011;39400;49.744;7.012;2022-12-17T15:53:03;3.90;;;1.50;;